Amherst, South Dakota
Current Conditions -  °F | °C
As of 9:53 AM on Friday 31 Oct 2014 (Local Time) from KABR Reporting Station
Clear Clear  
Wind Chill: 14°   Ceiling: Unl
Heat Index: 22°   Visibility: 10mi
Dew Point: 18°   Wind: 6mph
Humidity: 85%   Direction: 80°E
Pressure: 30.6"   Gusts: NA
Location:  45.74°N, 97.92°W
Report Text: KABR 311453Z AUTO 08005KT 10SM CLR M06/M08 A3060 RMK AO2 SLP383 T10561078 55000
Loading
Personal Weather Stations






























Interactive Weather Map
Tropical Storm Tracking
New forecast layout! Learn more

10-Day Weather Forecast

Advertisements
Track Severe Weather on mobile